createdAt,value
2022-10-23T00:00:42.533Z,7.87
2022-10-23T00:03:08.583Z,5.30
2022-10-23T00:05:39.810Z,5.60
2022-10-23T00:08:05.818Z,6.83
2022-10-23T00:10:31.842Z,6.93
2022-10-23T00:12:57.844Z,13.30
2022-10-23T00:15:26.687Z,5.87
2022-10-23T00:17:52.718Z,9.40
2022-10-23T00:20:19.125Z,27.47
2022-10-23T00:22:45.193Z,6.80
2022-10-23T00:25:11.281Z,5.53
2022-10-23T00:27:37.313Z,13.53
2022-10-23T00:30:04.927Z,7.20
2022-10-23T00:35:01.860Z,12.10
2022-10-23T00:37:27.854Z,7.70
2022-10-23T00:39:53.842Z,10.17
2022-10-23T00:42:21.005Z,16.17
2022-10-23T00:44:49.728Z,9.20
2022-10-23T00:47:16.314Z,11.90
2022-10-23T00:49:42.921Z,7.77
2022-10-23T00:52:11.332Z,11.30
2022-10-23T00:54:39.782Z,9.23
2022-10-23T00:57:07.898Z,12.67
2022-10-23T00:59:34.006Z,17.90
2022-10-23T01:02:00.139Z,7.07
2022-10-23T01:04:27.758Z,14.13
2022-10-23T01:07:15.054Z,13.00
2022-10-23T01:09:56.267Z,11.90
2022-10-23T01:12:34.623Z,12.30
2022-10-23T01:15:10.176Z,13.73
2022-10-23T01:17:47.915Z,16.33
2022-10-23T01:20:23.198Z,6.57
2022-10-23T01:23:13.702Z,14.03
2022-10-23T01:25:45.707Z,10.23
2022-10-23T01:28:16.017Z,9.23
2022-10-23T01:30:43.658Z,17.70
2022-10-23T01:33:13.670Z,6.90
2022-10-23T01:35:52.439Z,8.17
2022-10-23T01:38:25.242Z,15.23
2022-10-23T01:41:02.412Z,17.00
2022-10-23T01:43:43.085Z,10.60
2022-10-23T01:46:13.521Z,8.47
2022-10-23T01:48:40.464Z,7.70
2022-10-23T01:51:09.270Z,6.50
2022-10-23T01:53:40.457Z,12.57
2022-10-23T01:56:12.714Z,12.03
2022-10-23T01:58:42.237Z,8.00
2022-10-23T02:01:09.505Z,14.60
2022-10-23T02:03:36.696Z,9.77
2022-10-23T02:06:02.808Z,12.03
2022-10-23T02:08:28.845Z,9.13
2022-10-23T02:11:13.412Z,11.00
2022-10-23T02:13:49.940Z,5.93
2022-10-23T02:16:39.175Z,25.70
2022-10-23T02:19:45.384Z,5.87
2022-10-23T02:22:24.537Z,8.90
2022-10-23T02:24:59.237Z,10.03
2022-10-23T02:27:35.142Z,5.53
2022-10-23T02:30:09.806Z,4.77
2022-10-23T02:32:39.433Z,9.27
2022-10-23T02:35:06.098Z,14.83
2022-10-23T02:37:32.781Z,4.67
2022-10-23T02:39:58.894Z,5.27
2022-10-23T02:42:38.954Z,7.00
2022-10-23T02:45:13.797Z,12.40
2022-10-23T02:47:54.762Z,4.53
2022-10-23T02:50:54.794Z,7.53
2022-10-23T02:53:41.020Z,6.83
2022-10-23T02:56:12.365Z,8.97
2022-10-23T02:58:59.598Z,10.43
2022-10-23T03:01:29.034Z,9.47
2022-10-23T03:03:57.290Z,9.53
2022-10-23T03:06:23.762Z,9.80
2022-10-23T03:08:59.871Z,18.70
2022-10-23T03:11:26.011Z,9.37
2022-10-23T03:13:52.048Z,12.53
2022-10-23T03:16:18.203Z,4.83
2022-10-23T03:18:44.239Z,5.23
2022-10-23T03:21:10.243Z,10.03
2022-10-23T03:23:36.302Z,3.50
2022-10-23T03:26:02.340Z,7.63
2022-10-23T03:28:28.399Z,12.10
2022-10-23T03:30:55.272Z,8.63
2022-10-23T03:33:21.858Z,11.97
2022-10-23T03:38:19.454Z,11.23
2022-10-23T03:40:45.464Z,20.67
2022-10-23T03:43:11.450Z,38.73
2022-10-23T03:45:37.838Z,46.90
2022-10-23T03:48:05.051Z,58.47
2022-10-23T03:50:31.067Z,39.30
2022-10-23T03:52:57.178Z,96.27
2022-10-23T03:55:24.955Z,131.67
2022-10-23T03:57:50.939Z,129.57
2022-10-23T04:00:17.241Z,66.17
2022-10-23T04:02:43.973Z,37.17
2022-10-23T04:05:11.029Z,11.03
2022-10-23T04:07:37.468Z,25.10
2022-10-23T04:10:04.274Z,16.73
2022-10-23T04:12:30.413Z,6.40
2022-10-23T04:14:56.435Z,62.83
2022-10-23T04:17:22.498Z,40.53
2022-10-23T04:19:48.565Z,37.60
2022-10-23T04:22:14.588Z,56.57
2022-10-23T04:24:45.839Z,38.23
2022-10-23T04:27:12.565Z,60.17
2022-10-23T04:29:38.605Z,56.17
2022-10-23T04:32:06.460Z,68.70
2022-10-23T04:34:32.486Z,17.00
2022-10-23T04:36:58.562Z,29.63
2022-10-23T04:39:24.718Z,32.33
2022-10-23T04:41:50.730Z,52.23
2022-10-23T04:44:16.754Z,19.23
2022-10-23T04:46:42.832Z,29.60
2022-10-23T04:49:08.902Z,12.00
2022-10-23T04:51:35.017Z,37.90
2022-10-23T04:54:01.068Z,7.30
2022-10-23T04:56:27.173Z,6.03
2022-10-23T04:58:54.119Z,38.67
2022-10-23T05:01:20.256Z,19.53
2022-10-23T05:03:46.387Z,11.20
2022-10-23T05:06:12.377Z,27.73
2022-10-23T05:08:38.378Z,52.97
2022-10-23T05:11:04.657Z,16.07
2022-10-23T05:13:30.669Z,19.43
2022-10-23T05:15:57.820Z,9.43
2022-10-23T05:18:27.521Z,30.50
2022-10-23T05:20:57.565Z,6.80
2022-10-23T05:23:24.369Z,18.27
2022-10-23T05:25:50.434Z,12.23
2022-10-23T05:28:16.452Z,6.67
2022-10-23T05:30:42.664Z,9.53
2022-10-23T05:33:09.759Z,7.10
2022-10-23T05:35:35.936Z,19.53
2022-10-23T05:38:02.228Z,13.90
2022-10-23T05:40:28.319Z,8.20
2022-10-23T05:42:54.400Z,34.47
2022-10-23T05:45:20.602Z,19.93
2022-10-23T05:47:48.348Z,68.13
2022-10-23T05:50:14.664Z,29.40
2022-10-23T05:52:40.844Z,6.40
2022-10-23T05:55:07.385Z,6.87
2022-10-23T05:57:33.923Z,6.57
2022-10-23T06:00:00.046Z,5.80
2022-10-23T06:02:26.101Z,8.93
2022-10-23T06:04:52.215Z,17.23
2022-10-23T06:07:25.723Z,26.83
2022-10-23T06:09:52.303Z,17.50
2022-10-23T06:12:19.695Z,28.83
2022-10-23T06:14:45.867Z,30.87
2022-10-23T06:17:11.947Z,20.63
2022-10-23T06:19:37.954Z,19.23
2022-10-23T06:22:04.609Z,14.60
2022-10-23T06:24:30.624Z,17.00
2022-10-23T06:26:56.787Z,36.17
2022-10-23T06:29:22.863Z,51.77
2022-10-23T06:31:49.121Z,13.60
2022-10-23T06:34:15.298Z,14.00
2022-10-23T06:36:41.369Z,30.10
2022-10-23T06:39:09.364Z,26.27
2022-10-23T06:41:35.365Z,34.37
2022-10-23T06:44:01.427Z,10.43
2022-10-23T06:46:29.356Z,46.87
2022-10-23T06:48:55.383Z,121.63
2022-10-23T06:51:21.804Z,7.23
2022-10-23T06:53:47.823Z,6.70
2022-10-23T06:56:13.890Z,6.67
2022-10-23T06:58:40.283Z,6.80
2022-10-23T07:01:10.430Z,15.33
2022-10-23T07:03:36.687Z,6.90
2022-10-23T07:06:07.818Z,7.53
2022-10-23T07:08:33.827Z,6.50
2022-10-23T07:11:07.492Z,6.40
2022-10-23T07:13:35.099Z,5.60
2022-10-23T07:16:21.482Z,6.07
2022-10-23T07:18:48.605Z,4.57
2022-10-23T07:21:15.020Z,5.40
2022-10-23T07:23:41.088Z,4.90
2022-10-23T07:26:15.285Z,4.43
2022-10-23T07:28:43.012Z,4.00
2022-10-23T07:31:09.994Z,5.97
2022-10-23T07:33:36.514Z,5.63
2022-10-23T07:36:07.167Z,4.90
2022-10-23T07:38:33.639Z,4.60
2022-10-23T07:41:00.000Z,3.70
2022-10-23T07:43:26.391Z,5.20
2022-10-23T07:45:53.272Z,7.77
2022-10-23T07:48:20.388Z,5.40
2022-10-23T07:50:46.420Z,5.20
2022-10-23T07:53:20.768Z,5.50
2022-10-23T07:55:59.437Z,5.70
2022-10-23T07:58:26.287Z,4.17
2022-10-23T08:01:02.670Z,4.50
2022-10-23T08:03:32.315Z,4.13
2022-10-23T08:05:58.779Z,6.90
2022-10-23T08:08:25.359Z,4.00
2022-10-23T08:10:53.490Z,4.03
2022-10-23T08:13:20.138Z,3.77
2022-10-23T08:15:48.025Z,4.50
2022-10-23T08:18:14.466Z,4.17
2022-10-23T08:20:42.078Z,7.73
2022-10-23T08:23:09.066Z,4.20
2022-10-23T08:25:35.243Z,5.17
2022-10-23T08:28:04.225Z,4.33
2022-10-23T08:30:32.510Z,5.53
2022-10-23T08:32:58.499Z,6.60
2022-10-23T08:35:24.678Z,3.97
2022-10-23T08:37:50.665Z,3.90
2022-10-23T08:40:18.855Z,3.77
2022-10-23T08:42:48.798Z,6.87
2022-10-23T08:45:27.991Z,2.43
2022-10-23T08:47:56.471Z,2.27
2022-10-23T08:53:13.954Z,2.33
2022-10-23T08:55:46.802Z,4.47
2022-10-23T08:58:28.885Z,5.77
2022-10-23T09:00:54.965Z,4.03
2022-10-23T09:03:21.193Z,1.43
2022-10-23T09:06:20.777Z,4.07
2022-10-23T09:08:57.346Z,2.80
2022-10-23T09:12:03.168Z,1.53
2022-10-23T09:14:53.439Z,2.47
2022-10-23T09:17:30.589Z,3.00
2022-10-23T09:20:12.224Z,2.10
2022-10-23T09:22:38.615Z,2.23
2022-10-23T09:25:10.250Z,1.77
2022-10-23T09:27:36.375Z,1.40
2022-10-23T09:30:02.911Z,2.80
2022-10-23T09:32:47.011Z,7.67
2022-10-23T09:35:21.834Z,3.07
2022-10-23T09:37:52.342Z,2.90
2022-10-23T09:40:24.902Z,3.50
2022-10-23T09:42:56.592Z,6.20
2022-10-23T09:45:29.303Z,11.70
2022-10-23T09:48:15.432Z,3.20
2022-10-23T09:50:56.019Z,1.23
2022-10-23T09:53:38.202Z,2.07
2022-10-23T09:56:11.151Z,4.73
2022-10-23T09:58:43.099Z,3.20
2022-10-23T10:01:23.493Z,2.30
2022-10-23T10:03:50.753Z,2.50
2022-10-23T10:06:28.545Z,1.50
2022-10-23T10:09:05.061Z,3.60
2022-10-23T10:11:58.270Z,2.33
2022-10-23T10:14:35.390Z,1.60
2022-10-23T10:17:30.702Z,1.43
2022-10-23T10:20:05.391Z,12.30
2022-10-23T10:22:39.778Z,3.33
2022-10-23T10:25:30.684Z,2.70
2022-10-23T10:28:11.832Z,3.20
2022-10-23T10:30:47.879Z,6.70
2022-10-23T10:33:36.133Z,2.87
2022-10-23T10:36:17.210Z,7.37
2022-10-23T10:38:56.948Z,3.57
2022-10-23T10:41:52.288Z,1.60
2022-10-23T10:44:42.929Z,1.60
2022-10-23T10:47:22.011Z,3.10
2022-10-23T10:50:06.830Z,1.80
2022-10-23T10:52:36.525Z,5.80
2022-10-23T10:55:17.303Z,5.00
2022-10-23T10:57:50.126Z,1.33
2022-10-23T11:00:19.237Z,4.13
2022-10-23T11:02:53.337Z,6.43
2022-10-23T11:05:32.669Z,2.20
2022-10-23T11:08:11.345Z,2.90
2022-10-23T11:10:49.963Z,2.53
2022-10-23T11:13:39.696Z,5.00
2022-10-23T11:16:17.035Z,2.30
2022-10-23T11:18:46.339Z,1.63
2022-10-23T11:21:18.165Z,2.23
2022-10-23T11:23:59.597Z,7.23
2022-10-23T11:26:59.441Z,2.30
2022-10-23T11:29:32.340Z,9.83
2022-10-23T11:32:25.479Z,2.80
2022-10-23T11:35:05.229Z,3.93
2022-10-23T11:37:31.599Z,5.63
2022-10-23T11:40:13.000Z,5.57
2022-10-23T11:42:39.018Z,1.67
2022-10-23T11:45:34.717Z,4.30
2022-10-23T11:48:13.014Z,4.17
2022-10-23T11:50:45.445Z,1.30
2022-10-23T11:53:38.342Z,2.50
2022-10-23T11:56:23.949Z,9.00
2022-10-23T11:58:52.283Z,4.33
2022-10-23T12:01:27.077Z,3.30
2022-10-23T12:04:11.565Z,3.37
2022-10-23T12:06:44.585Z,1.80
2022-10-23T12:09:24.837Z,5.40
2022-10-23T12:12:14.228Z,6.53
2022-10-23T12:14:41.863Z,1.67
2022-10-23T12:17:22.783Z,5.23
2022-10-23T12:19:53.889Z,2.30
2022-10-23T12:22:21.571Z,1.73
2022-10-23T12:25:22.931Z,2.80
2022-10-23T12:27:59.767Z,3.40
2022-10-23T12:30:40.458Z,11.37
2022-10-23T12:33:26.449Z,2.73
2022-10-23T12:36:15.188Z,6.10
2022-10-23T12:38:45.735Z,4.37
2022-10-23T12:41:24.062Z,5.23
2022-10-23T12:43:56.007Z,1.30
2022-10-23T12:46:31.288Z,1.53
2022-10-23T12:48:58.428Z,1.63
2022-10-23T12:51:32.522Z,2.93
2022-10-23T12:53:58.935Z,7.67
2022-10-23T12:56:25.837Z,1.97
2022-10-23T12:58:55.120Z,2.43
2022-10-23T13:01:34.530Z,5.80
2022-10-23T13:04:26.042Z,4.67
2022-10-23T13:06:52.577Z,2.17
2022-10-23T13:09:23.658Z,3.60
2022-10-23T13:11:51.162Z,5.63
2022-10-23T13:14:29.989Z,6.80
2022-10-23T13:17:05.059Z,3.00
2022-10-23T13:19:31.660Z,3.83
2022-10-23T13:21:58.280Z,2.53
2022-10-23T13:24:27.375Z,3.30
2022-10-23T13:26:54.436Z,1.40
2022-10-23T13:29:33.670Z,3.43
2022-10-23T13:32:10.743Z,3.30
2022-10-23T13:34:36.777Z,7.83
2022-10-23T13:37:20.230Z,2.03
2022-10-23T13:39:46.245Z,4.20
2022-10-23T13:42:13.764Z,1.87
2022-10-23T13:44:40.187Z,2.37
2022-10-23T13:47:11.324Z,1.53
2022-10-23T13:49:37.348Z,1.67
2022-10-23T13:52:03.662Z,1.50
2022-10-23T13:54:29.758Z,3.30
2022-10-23T13:56:56.358Z,3.00
2022-10-23T13:59:22.948Z,1.43
2022-10-23T14:01:49.742Z,2.90
2022-10-23T14:04:17.385Z,1.67
2022-10-23T14:06:43.606Z,3.70
2022-10-23T14:09:15.512Z,2.90
2022-10-23T14:11:41.943Z,5.13
2022-10-23T14:14:08.068Z,2.83
2022-10-23T14:16:34.158Z,1.83
2022-10-23T14:19:00.226Z,2.80
2022-10-23T14:21:26.248Z,6.20
2022-10-23T14:23:53.052Z,2.90
2022-10-23T14:26:24.641Z,3.63
2022-10-23T14:28:55.287Z,1.73
2022-10-23T14:31:21.522Z,1.53
2022-10-23T14:33:52.141Z,4.03
2022-10-23T14:38:45.228Z,1.90
2022-10-23T14:41:12.611Z,8.07
2022-10-23T14:43:38.894Z,1.60
2022-10-23T14:46:13.627Z,3.13
2022-10-23T14:48:40.183Z,2.03
2022-10-23T14:51:13.820Z,2.10
2022-10-23T14:53:39.806Z,3.40
2022-10-23T14:56:06.006Z,3.50
2022-10-23T14:58:31.996Z,5.30
2022-10-23T15:01:00.927Z,1.47
2022-10-23T15:03:28.127Z,3.37
2022-10-23T15:05:54.503Z,2.17
2022-10-23T15:08:21.712Z,5.03
2022-10-23T15:10:48.097Z,1.90
2022-10-23T15:13:14.189Z,4.07
2022-10-23T15:15:40.347Z,3.40
2022-10-23T15:18:06.383Z,1.70
2022-10-23T15:20:32.402Z,2.90
2022-10-23T15:23:00.094Z,3.10
2022-10-23T15:25:26.334Z,1.50
2022-10-23T15:27:52.349Z,2.87
2022-10-23T15:30:18.362Z,2.10
2022-10-23T15:32:44.369Z,1.80
2022-10-23T15:35:10.359Z,2.13
2022-10-23T15:37:36.418Z,5.33
2022-10-23T15:40:02.912Z,5.67
2022-10-23T15:42:28.955Z,3.13
2022-10-23T15:44:54.987Z,5.33
2022-10-23T15:47:20.975Z,5.93
2022-10-23T15:49:47.052Z,2.10
2022-10-23T15:52:13.156Z,7.17
2022-10-23T15:54:39.196Z,3.00
2022-10-23T15:57:05.284Z,4.17
2022-10-23T15:59:31.814Z,2.70
2022-10-23T16:01:58.191Z,2.33
2022-10-23T16:04:24.260Z,2.43
2022-10-23T16:06:50.408Z,2.93
2022-10-23T16:09:16.556Z,7.93
2022-10-23T16:11:43.588Z,7.87
2022-10-23T16:14:15.098Z,2.50
2022-10-23T16:16:41.590Z,3.70
2022-10-23T16:19:09.330Z,4.80
2022-10-23T16:21:36.205Z,3.33
2022-10-23T16:24:04.315Z,3.87
2022-10-23T16:26:30.905Z,8.13
2022-10-23T16:28:59.935Z,4.10
2022-10-23T16:31:26.938Z,3.03
2022-10-23T16:33:55.019Z,6.13
2022-10-23T16:36:21.138Z,4.70
2022-10-23T16:38:47.189Z,2.87
2022-10-23T16:41:13.187Z,2.90
2022-10-23T16:43:39.269Z,3.70
2022-10-23T16:46:06.921Z,3.70
2022-10-23T16:48:33.773Z,2.90
2022-10-23T16:51:00.342Z,5.30
2022-10-23T16:53:28.387Z,6.27
2022-10-23T16:55:56.023Z,6.70
2022-10-23T16:58:22.935Z,3.60
2022-10-23T17:01:01.001Z,12.10
2022-10-23T17:03:28.214Z,6.90
2022-10-23T17:06:01.491Z,3.40
2022-10-23T17:08:28.185Z,4.70
2022-10-23T17:11:04.861Z,2.20
2022-10-23T17:13:31.387Z,3.57
2022-10-23T17:16:12.343Z,2.53
2022-10-23T17:18:42.896Z,2.70
2022-10-23T17:21:11.310Z,14.63
2022-10-23T17:23:37.411Z,2.80
2022-10-23T17:26:16.182Z,2.90
2022-10-23T17:28:42.681Z,3.30
2022-10-23T17:31:21.985Z,5.03
2022-10-23T17:33:50.809Z,10.63
2022-10-23T17:36:18.438Z,9.03
2022-10-23T17:38:44.951Z,1.97
2022-10-23T17:41:12.615Z,2.00
2022-10-23T17:43:39.072Z,3.87
2022-10-23T17:46:06.411Z,2.27
2022-10-23T17:48:33.568Z,3.67
2022-10-23T17:51:10.778Z,2.80
2022-10-23T17:53:38.504Z,2.50
2022-10-23T17:56:06.223Z,2.90
2022-10-23T17:58:32.597Z,3.73
2022-10-23T18:01:10.249Z,5.77
2022-10-23T18:03:37.460Z,3.70
2022-10-23T18:06:07.369Z,5.73
2022-10-23T18:08:35.123Z,1.70
2022-10-23T18:11:03.629Z,2.37
2022-10-23T18:13:31.255Z,6.73
2022-10-23T18:16:05.383Z,4.50
2022-10-23T18:18:31.427Z,2.20
2022-10-23T18:20:58.337Z,8.83
2022-10-23T18:23:28.377Z,9.23
2022-10-23T18:25:55.869Z,3.90
2022-10-23T18:28:22.576Z,4.97
2022-10-23T18:30:51.137Z,5.57
2022-10-23T18:33:19.682Z,6.63
2022-10-23T18:35:46.449Z,5.20
2022-10-23T18:38:13.073Z,4.07
2022-10-23T18:40:40.421Z,10.83
2022-10-23T18:43:11.655Z,3.23
2022-10-23T18:45:41.844Z,6.00
2022-10-23T18:48:07.993Z,2.83
2022-10-23T18:50:37.322Z,3.53
2022-10-23T18:53:03.852Z,2.80
2022-10-23T18:55:29.898Z,2.93
2022-10-23T18:57:56.202Z,2.70
2022-10-23T19:00:22.232Z,2.70
2022-10-23T19:02:52.158Z,3.53
2022-10-23T19:05:18.787Z,3.73
2022-10-23T19:07:45.510Z,10.77
2022-10-23T19:10:15.150Z,3.50
2022-10-23T19:12:42.303Z,5.73
2022-10-23T19:15:09.112Z,11.20
2022-10-23T19:17:36.016Z,15.73
2022-10-23T19:20:14.928Z,6.97
2022-10-23T19:22:43.278Z,7.30
2022-10-23T19:25:16.809Z,2.37
2022-10-23T19:27:44.209Z,4.90
2022-10-23T19:30:12.917Z,2.00
2022-10-23T19:32:40.828Z,1.70
2022-10-23T19:35:07.867Z,11.33
2022-10-23T19:37:34.226Z,1.70
2022-10-23T19:40:01.712Z,5.03
2022-10-23T19:42:27.707Z,3.20
2022-10-23T19:44:53.737Z,10.00
2022-10-23T19:47:19.737Z,6.17
2022-10-23T19:49:45.759Z,3.03
2022-10-23T19:52:11.778Z,4.23
2022-10-23T19:54:40.349Z,5.87
2022-10-23T19:57:06.409Z,7.53
2022-10-23T19:59:32.409Z,4.87
2022-10-23T20:01:58.493Z,14.50
2022-10-23T20:04:24.711Z,16.00
2022-10-23T20:06:50.790Z,10.67
2022-10-23T20:09:16.821Z,4.83
2022-10-23T20:11:44.402Z,4.30
2022-10-23T20:14:11.966Z,9.43
2022-10-23T20:16:38.847Z,6.30
2022-10-23T20:19:07.381Z,3.80
2022-10-23T20:21:40.405Z,4.37
2022-10-23T20:24:07.482Z,5.37
2022-10-23T20:26:33.918Z,5.40
2022-10-23T20:28:59.981Z,8.40
2022-10-23T20:31:26.680Z,4.47
2022-10-23T20:33:53.161Z,4.60
2022-10-23T20:36:21.901Z,5.87
2022-10-23T20:38:47.926Z,5.97
2022-10-23T20:41:13.945Z,6.37
2022-10-23T20:43:39.965Z,4.87
2022-10-23T20:46:07.880Z,4.77
2022-10-23T20:48:38.315Z,3.90
2022-10-23T20:51:15.331Z,5.27
2022-10-23T20:53:41.888Z,4.00
2022-10-23T20:56:19.856Z,12.03
2022-10-23T20:58:46.427Z,6.30
2022-10-23T21:01:18.386Z,4.57
2022-10-23T21:03:50.245Z,4.10
2022-10-23T21:06:16.610Z,4.00
2022-10-23T21:08:42.660Z,6.30
2022-10-23T21:11:13.823Z,12.23
2022-10-23T21:13:41.208Z,3.67
2022-10-23T21:16:14.509Z,4.70
2022-10-23T21:18:46.025Z,3.60
2022-10-23T21:21:14.328Z,5.77
2022-10-23T21:23:40.426Z,5.20
2022-10-23T21:26:07.482Z,8.17
2022-10-23T21:28:34.334Z,6.63
2022-10-23T21:31:06.877Z,5.97
2022-10-23T21:33:33.379Z,4.90
2022-10-23T21:36:12.785Z,10.93
2022-10-23T21:38:39.800Z,2.90
2022-10-23T21:41:12.015Z,2.70
2022-10-23T21:43:38.054Z,4.80
2022-10-23T21:46:05.677Z,3.30
2022-10-23T21:48:32.430Z,9.30
2022-10-23T21:50:59.249Z,5.60
2022-10-23T21:53:26.211Z,3.60
2022-10-23T21:55:52.384Z,3.13
2022-10-23T21:58:18.434Z,3.33
2022-10-23T22:00:44.509Z,3.53
2022-10-23T22:03:10.536Z,4.77
2022-10-23T22:05:36.533Z,3.40
2022-10-23T22:08:02.867Z,6.70
2022-10-23T22:10:28.922Z,5.53
2022-10-23T22:12:54.956Z,6.33
2022-10-23T22:15:21.008Z,5.33
2022-10-23T22:17:47.234Z,4.83
2022-10-23T22:20:13.357Z,5.13
2022-10-23T22:22:39.364Z,5.47
2022-10-23T22:25:06.035Z,2.90
2022-10-23T22:27:32.071Z,5.93
2022-10-23T22:29:58.060Z,5.87
2022-10-23T22:32:24.259Z,2.93
2022-10-23T22:34:53.082Z,11.10
2022-10-23T22:37:19.503Z,3.97
2022-10-23T22:39:45.567Z,4.77
2022-10-23T22:42:11.587Z,3.17
2022-10-23T22:44:37.639Z,3.70
2022-10-23T22:47:03.944Z,3.53
2022-10-23T22:49:29.990Z,8.43
2022-10-23T22:51:55.983Z,3.13
2022-10-23T22:54:21.970Z,4.07
2022-10-23T22:56:47.975Z,4.60
2022-10-23T22:59:13.982Z,3.57
2022-10-23T23:01:43.019Z,4.53
2022-10-23T23:04:32.909Z,3.50
2022-10-23T23:06:57.586Z,8.20
2022-10-23T23:09:23.599Z,3.00
2022-10-23T23:11:52.936Z,7.20
2022-10-23T23:14:23.075Z,7.30
2022-10-23T23:16:51.697Z,3.80
2022-10-23T23:19:17.703Z,3.70
2022-10-23T23:21:43.708Z,3.90
2022-10-23T23:24:10.893Z,3.83
2022-10-23T23:26:36.909Z,5.03
2022-10-23T23:29:02.906Z,9.53
2022-10-23T23:31:28.942Z,8.00
2022-10-23T23:33:54.976Z,4.00
2022-10-23T23:36:26.058Z,13.63
2022-10-23T23:38:53.108Z,4.20
2022-10-23T23:41:20.468Z,4.30
2022-10-23T23:43:47.067Z,9.23
2022-10-23T23:46:13.287Z,5.07
2022-10-23T23:48:41.442Z,5.73
2022-10-23T23:51:07.687Z,9.70
2022-10-23T23:53:33.722Z,6.37
2022-10-23T23:55:59.789Z,7.50
2022-10-23T23:58:25.873Z,14.80
